IE-0034 weather

Ballyvaloo Airstrip
County Wexford, Ireland

Public forecast

Using degrees Celsius for public forecast. Weather courtesy of forecast.io.

Closest aviation weather report (METAR) to Ballyvaloo Airstrip

Closest report is Waterford Airport, 29.9 nm (55.3 km) WSW. Retrieved 2020/07/03 19:30 UTC (6 minutes ago):

EIWF 031930Z 25015KT 220V290 3000 BR BKN003 14/14 Q1007 R21/1/////

Closest aviation forecast (TAF) to Ballyvaloo Airstrip

Closest forecast is Dublin Airport, 60.5 nm (112.1 km) N. Retrieved 2020/07/03 18:09 UTC (1 hour ago):

TAF EIDW 031700Z 0318/0418 23012KT 9999 FEW013 BKN022 BECMG 0320/0322 26008KT TEMPO 0320/0411 5000 -RA BR BKN013 PROB30 TEMPO 0320/0409 3000 BKN007 BECMG 0407/0409 23009KT PROB40 TEMPO 0411/0418 5000 -RA BR BKN013